createdAt,value
2023-06-29T00:01:00.337Z,99013.06
2023-06-29T00:04:02.803Z,99027.91
2023-06-29T00:07:04.776Z,99026.66
2023-06-29T00:10:09.081Z,99035.72
2023-06-29T00:13:10.575Z,99032.59
2023-06-29T00:16:12.142Z,99031.44
2023-06-29T00:19:15.610Z,99024.66
2023-06-29T00:22:18.521Z,99020.00
2023-06-29T00:25:20.622Z,99017.53
2023-06-29T00:28:22.224Z,99016.78
2023-06-29T00:31:25.353Z,99014.44
2023-06-29T00:34:29.883Z,99016.13
2023-06-29T00:37:38.945Z,99017.19
2023-06-29T00:40:40.491Z,99014.13
2023-06-29T00:44:09.023Z,99004.22
2023-06-29T00:47:23.030Z,99004.13
2023-06-29T00:50:25.669Z,98999.00
2023-06-29T00:53:36.167Z,98990.38
2023-06-29T00:56:38.673Z,98980.59
2023-06-29T00:59:40.205Z,98988.09
2023-06-29T01:02:47.767Z,98976.28
2023-06-29T01:05:51.829Z,98982.88
2023-06-29T01:09:13.467Z,98987.13
2023-06-29T01:12:16.781Z,98982.06
2023-06-29T01:15:28.257Z,98982.41
2023-06-29T01:18:31.655Z,98989.44
2023-06-29T01:21:38.679Z,98987.34
2023-06-29T01:24:43.453Z,98981.41
2023-06-29T01:28:10.274Z,98980.22
2023-06-29T01:31:14.860Z,98981.31
2023-06-29T01:34:22.568Z,98971.16
2023-06-29T01:37:29.594Z,98972.75
2023-06-29T01:40:38.167Z,98957.97
2023-06-29T01:44:12.644Z,98963.81
2023-06-29T01:47:17.032Z,98958.72
2023-06-29T01:50:26.570Z,98968.09
2023-06-29T01:53:32.905Z,98971.88
2023-06-29T01:56:38.360Z,98979.25
2023-06-29T01:59:40.901Z,98990.19
2023-06-29T02:02:43.082Z,98993.34
2023-06-29T02:05:48.140Z,98994.84
2023-06-29T02:08:52.969Z,98988.91
2023-06-29T02:12:09.362Z,98982.63
2023-06-29T02:15:18.319Z,98984.19
2023-06-29T02:18:20.997Z,98982.63
2023-06-29T02:21:22.636Z,98966.09
2023-06-29T02:27:39.990Z,98963.00
2023-06-29T02:30:41.670Z,98951.88
2023-06-29T02:33:53.400Z,98960.31
2023-06-29T02:36:56.698Z,98953.72
2023-06-29T02:40:13.699Z,98960.28
2023-06-29T02:43:16.494Z,98963.66
2023-06-29T02:46:25.817Z,98973.34
2023-06-29T02:49:27.719Z,98966.22
2023-06-29T02:52:35.671Z,98971.38
2023-06-29T02:55:45.393Z,98966.25
2023-06-29T02:58:47.151Z,98967.44
2023-06-29T03:01:57.206Z,98973.25
2023-06-29T03:04:58.789Z,98969.94
2023-06-29T03:08:03.305Z,98959.78
2023-06-29T03:11:07.008Z,98955.56
2023-06-29T03:14:15.974Z,98956.31
2023-06-29T03:17:17.617Z,98945.69
2023-06-29T03:20:26.551Z,98955.13
2023-06-29T03:23:37.342Z,98950.41
2023-06-29T03:26:39.792Z,98938.63
2023-06-29T03:29:44.350Z,98945.75
2023-06-29T03:32:46.029Z,98948.78
2023-06-29T03:35:50.444Z,98951.88
2023-06-29T03:38:52.260Z,98939.34
2023-06-29T03:41:53.829Z,98960.16
2023-06-29T03:48:21.154Z,98966.06
2023-06-29T03:51:24.001Z,98958.31
2023-06-29T03:54:26.871Z,98962.13
2023-06-29T04:00:44.027Z,98948.41
2023-06-29T04:03:46.079Z,98944.94
2023-06-29T04:06:47.754Z,98942.22
2023-06-29T04:09:51.700Z,98946.56
2023-06-29T04:12:53.207Z,98942.00
2023-06-29T04:19:10.473Z,98938.22
2023-06-29T04:22:12.079Z,98935.94
2023-06-29T04:25:13.835Z,98929.34
2023-06-29T04:28:15.486Z,98944.56
2023-06-29T04:31:17.109Z,98934.81
2023-06-29T04:34:18.841Z,98937.28
2023-06-29T04:37:39.551Z,98939.72
2023-06-29T04:40:41.171Z,98937.78
2023-06-29T04:43:52.323Z,98933.56
2023-06-29T04:46:54.042Z,98934.06
2023-06-29T04:49:57.975Z,98939.59
2023-06-29T04:53:00.294Z,98925.53
2023-06-29T04:56:05.270Z,98935.06
2023-06-29T05:02:25.170Z,98924.31
2023-06-29T05:05:29.019Z,98922.44
2023-06-29T05:08:33.385Z,98924.06
2023-06-29T05:11:35.686Z,98904.94
2023-06-29T05:14:37.303Z,98914.78
2023-06-29T05:17:38.894Z,98911.66
2023-06-29T05:20:40.434Z,98918.75
2023-06-29T05:24:10.331Z,98907.81
2023-06-29T05:27:12.055Z,98898.84
2023-06-29T05:30:14.594Z,98906.69
2023-06-29T05:33:22.212Z,98914.16
2023-06-29T05:36:23.755Z,98909.91
2023-06-29T05:39:28.046Z,98917.34
2023-06-29T05:42:32.514Z,98904.47
2023-06-29T05:45:43.309Z,98918.19
2023-06-29T05:48:45.034Z,98917.03
2023-06-29T05:52:01.001Z,98913.91
2023-06-29T05:55:27.769Z,98915.84
2023-06-29T05:58:44.550Z,98917.03
2023-06-29T06:01:46.281Z,98911.56
2023-06-29T06:05:09.803Z,98916.25
2023-06-29T06:08:12.321Z,98924.47
2023-06-29T06:11:14.997Z,98911.50
2023-06-29T06:14:17.040Z,98917.78
2023-06-29T06:17:18.886Z,98920.13
2023-06-29T06:20:20.510Z,98926.78
2023-06-29T06:23:25.045Z,98923.66
2023-06-29T06:26:27.071Z,98928.72
2023-06-29T06:29:31.739Z,98915.38
2023-06-29T06:32:33.359Z,98926.34
2023-06-29T06:35:37.014Z,98926.34
2023-06-29T06:38:49.495Z,98929.50
2023-06-29T06:41:51.961Z,98930.31
2023-06-29T06:45:00.936Z,98937.78
2023-06-29T06:48:02.542Z,98940.91
2023-06-29T06:51:08.074Z,98931.88
2023-06-29T06:54:11.775Z,98923.22
2023-06-29T06:57:13.366Z,98933.00
2023-06-29T07:00:15.499Z,98940.09
2023-06-29T07:03:17.195Z,98937.34
2023-06-29T07:06:19.717Z,98938.47
2023-06-29T07:09:21.389Z,98937.28
2023-06-29T07:12:32.215Z,98939.22
2023-06-29T07:15:33.781Z,98931.34
2023-06-29T07:18:39.261Z,98925.84
2023-06-29T07:21:43.486Z,98926.22
2023-06-29T07:24:45.166Z,98916.56
2023-06-29T07:27:54.026Z,98905.00
2023-06-29T07:31:14.368Z,98919.69
2023-06-29T07:34:16.367Z,98919.97
2023-06-29T07:37:19.981Z,98919.03
2023-06-29T07:40:29.504Z,98907.47
2023-06-29T07:43:31.881Z,98913.78
2023-06-29T07:46:33.579Z,98912.19
2023-06-29T07:49:42.623Z,98914.84
2023-06-29T07:52:44.205Z,98912.72
2023-06-29T07:59:33.863Z,98914.97
2023-06-29T08:02:35.443Z,98906.59
2023-06-29T08:08:41.911Z,98925.91
2023-06-29T08:11:50.759Z,98913.19
2023-06-29T08:14:52.288Z,98922.69
2023-06-29T08:17:53.950Z,98919.34
2023-06-29T08:20:55.511Z,98922.72
2023-06-29T08:24:03.375Z,98923.66
2023-06-29T08:27:05.179Z,98904.69
2023-06-29T08:30:25.418Z,98906.69
2023-06-29T08:33:27.407Z,98908.13
2023-06-29T08:36:34.526Z,98906.22
2023-06-29T08:39:36.234Z,98911.53
2023-06-29T08:42:41.360Z,98903.41
2023-06-29T08:45:44.830Z,98911.06
2023-06-29T08:48:47.151Z,98906.56
2023-06-29T08:51:52.063Z,98908.41
2023-06-29T08:54:54.434Z,98900.91
2023-06-29T08:57:56.070Z,98904.75
2023-06-29T09:00:58.682Z,98891.25
2023-06-29T09:04:03.550Z,98896.88
2023-06-29T09:07:07.769Z,98892.00
2023-06-29T09:10:12.170Z,98907.69
2023-06-29T09:13:14.701Z,98891.38
2023-06-29T09:16:31.529Z,98887.09
2023-06-29T09:19:33.281Z,98895.06
2023-06-29T09:22:52.474Z,98897.63
2023-06-29T09:26:05.410Z,98886.28
2023-06-29T09:29:25.453Z,98893.44
2023-06-29T09:32:29.920Z,98893.38
2023-06-29T09:35:31.457Z,98892.06
2023-06-29T09:38:33.591Z,98888.22
2023-06-29T09:42:08.067Z,98885.16
2023-06-29T09:45:33.445Z,98894.16
2023-06-29T09:52:03.159Z,98884.81
2023-06-29T09:55:04.943Z,98872.66
2023-06-29T09:58:08.161Z,98875.50
2023-06-29T10:01:10.961Z,98887.69
2023-06-29T10:04:12.710Z,98884.81
2023-06-29T10:07:20.834Z,98882.91
2023-06-29T10:10:26.023Z,98882.56
2023-06-29T10:13:34.955Z,98883.81
2023-06-29T10:16:42.006Z,98876.50
2023-06-29T10:20:05.200Z,98886.25
2023-06-29T10:23:08.602Z,98877.72
2023-06-29T10:26:13.650Z,98870.06
2023-06-29T10:29:17.589Z,98874.59
2023-06-29T10:32:35.669Z,98883.13
2023-06-29T10:35:37.758Z,98879.22
2023-06-29T10:38:45.489Z,98874.94
2023-06-29T10:41:49.623Z,98865.41
2023-06-29T10:44:51.763Z,98863.34
2023-06-29T10:48:05.803Z,98870.88
2023-06-29T10:51:15.035Z,98850.81
2023-06-29T10:54:17.577Z,98852.25
2023-06-29T10:57:31.849Z,98858.00
2023-06-29T11:00:40.927Z,98854.94
2023-06-29T11:03:43.367Z,98846.41
2023-06-29T11:06:45.058Z,98857.06
2023-06-29T11:10:07.359Z,98865.44
2023-06-29T11:13:10.594Z,98860.97
2023-06-29T11:16:13.819Z,98852.75
2023-06-29T11:19:15.491Z,98856.19
2023-06-29T11:22:20.912Z,98862.72
2023-06-29T11:25:22.640Z,98850.00
2023-06-29T11:28:29.457Z,98847.66
2023-06-29T11:31:31.560Z,98848.50
2023-06-29T11:34:35.524Z,98850.34
2023-06-29T11:37:41.375Z,98838.50
2023-06-29T11:40:42.963Z,98847.59
2023-06-29T11:43:45.127Z,98847.19
2023-06-29T11:46:54.704Z,98834.94
2023-06-29T11:50:09.129Z,98841.59
2023-06-29T11:53:11.701Z,98827.97
2023-06-29T11:56:38.467Z,98835.41
2023-06-29T11:59:43.098Z,98822.25
2023-06-29T12:02:46.002Z,98832.00
2023-06-29T12:05:48.614Z,98827.53
2023-06-29T12:08:54.920Z,98818.84
2023-06-29T12:12:09.685Z,98814.22
2023-06-29T12:15:16.709Z,98802.28
2023-06-29T12:18:29.259Z,98803.53
2023-06-29T12:21:42.494Z,98796.38
2023-06-29T12:24:53.742Z,98798.88
2023-06-29T12:27:55.327Z,98792.25
2023-06-29T12:31:09.696Z,98801.84
2023-06-29T12:34:11.266Z,98796.38
2023-06-29T12:37:15.833Z,98794.94
2023-06-29T12:40:19.811Z,98792.66
2023-06-29T12:43:21.358Z,98784.28
2023-06-29T12:49:43.610Z,98768.50
2023-06-29T12:52:48.218Z,98771.44
2023-06-29T12:55:49.932Z,98766.94
2023-06-29T12:58:51.618Z,98772.22
2023-06-29T13:02:23.519Z,98779.97
2023-06-29T13:05:22.880Z,98776.72
2023-06-29T13:08:36.687Z,98758.25
2023-06-29T13:11:45.485Z,98767.84
2023-06-29T13:14:51.148Z,98767.56
2023-06-29T13:17:55.974Z,98770.22
2023-06-29T13:21:01.005Z,98768.22
2023-06-29T13:24:02.979Z,98764.31
2023-06-29T13:27:05.485Z,98754.41
2023-06-29T13:30:08.787Z,98749.75
2023-06-29T13:33:17.696Z,98754.88
2023-06-29T13:36:19.208Z,98755.50
2023-06-29T13:39:20.742Z,98756.91
2023-06-29T13:42:23.669Z,98767.91
2023-06-29T13:45:25.324Z,98760.41
2023-06-29T13:48:27.912Z,98748.97
2023-06-29T13:51:30.615Z,98748.69
2023-06-29T13:54:32.243Z,98752.84
2023-06-29T13:57:36.795Z,98746.66
2023-06-29T14:00:38.878Z,98746.78
2023-06-29T14:03:40.586Z,98732.13
2023-06-29T14:06:48.061Z,98738.28
2023-06-29T14:09:55.899Z,98725.88
2023-06-29T14:12:59.604Z,98724.34
2023-06-29T14:16:04.393Z,98722.19
2023-06-29T14:19:06.728Z,98720.22
2023-06-29T14:22:09.747Z,98723.28
2023-06-29T14:25:11.376Z,98718.84
2023-06-29T14:28:19.987Z,98712.72
2023-06-29T14:31:21.651Z,98700.19
2023-06-29T14:34:23.372Z,98712.41
2023-06-29T14:37:26.045Z,98689.97
2023-06-29T14:40:27.577Z,98703.94
2023-06-29T14:43:30.223Z,98696.06
2023-06-29T14:46:33.392Z,98704.97
2023-06-29T14:49:35.207Z,98703.97
2023-06-29T14:52:39.395Z,98702.59
2023-06-29T14:55:40.983Z,98692.56
2023-06-29T14:58:42.922Z,98681.88
2023-06-29T15:01:47.817Z,98704.09
2023-06-29T15:04:51.006Z,98703.13
2023-06-29T15:07:58.800Z,98698.25
2023-06-29T15:11:00.881Z,98703.97
2023-06-29T15:14:02.381Z,98704.91
2023-06-29T15:17:09.594Z,98699.31
2023-06-29T15:20:16.401Z,98690.59
2023-06-29T15:23:18.094Z,98683.28
2023-06-29T15:26:23.942Z,98667.63
2023-06-29T15:29:28.200Z,98679.56
2023-06-29T15:32:33.668Z,98690.81
2023-06-29T15:38:53.631Z,98674.03
2023-06-29T15:41:56.852Z,98675.97
2023-06-29T15:44:58.522Z,98672.97
2023-06-29T15:48:00.267Z,98675.25
2023-06-29T15:51:03.422Z,98673.38
2023-06-29T15:54:05.182Z,98660.09
2023-06-29T15:57:06.959Z,98660.00
2023-06-29T16:00:09.085Z,98663.19
2023-06-29T16:03:19.681Z,98660.97
2023-06-29T16:06:29.756Z,98653.19
2023-06-29T16:09:35.585Z,98648.63
2023-06-29T16:12:37.156Z,98641.38
2023-06-29T16:15:38.754Z,98633.84
2023-06-29T16:18:41.427Z,98639.66
2023-06-29T16:21:43.461Z,98639.59
2023-06-29T16:24:45.022Z,98633.53
2023-06-29T16:27:52.627Z,98627.81
2023-06-29T16:30:55.022Z,98628.09
2023-06-29T16:33:56.547Z,98630.38
2023-06-29T16:36:59.161Z,98629.53
2023-06-29T16:40:00.769Z,98623.75
2023-06-29T16:43:02.378Z,98627.72
2023-06-29T16:46:06.092Z,98624.28
2023-06-29T16:49:09.949Z,98625.47
2023-06-29T16:52:13.731Z,98627.59
2023-06-29T16:55:22.469Z,98632.25
2023-06-29T16:58:27.691Z,98622.28
2023-06-29T17:01:29.312Z,98620.75
2023-06-29T17:04:41.241Z,98623.38
2023-06-29T17:07:42.809Z,98628.91
2023-06-29T17:10:44.379Z,98636.19
2023-06-29T17:13:46.245Z,98624.06
2023-06-29T17:16:47.818Z,98618.28
2023-06-29T17:19:50.199Z,98638.13
2023-06-29T17:22:52.246Z,98611.25
2023-06-29T17:25:53.804Z,98623.59
2023-06-29T17:28:55.438Z,98625.44
2023-06-29T17:31:57.194Z,98627.03
2023-06-29T17:34:58.923Z,98627.94
2023-06-29T17:38:04.669Z,98627.31
2023-06-29T17:41:06.215Z,98624.75
2023-06-29T17:44:07.715Z,98621.69
2023-06-29T17:47:09.354Z,98637.44
2023-06-29T17:50:16.030Z,98637.19
2023-06-29T17:53:17.588Z,98626.16
2023-06-29T17:56:24.031Z,98631.28
2023-06-29T17:59:25.616Z,98631.09
2023-06-29T18:02:32.764Z,98610.25
2023-06-29T18:05:34.432Z,98632.78
2023-06-29T18:08:35.969Z,98634.78
2023-06-29T18:11:37.484Z,98632.84
2023-06-29T18:14:46.018Z,98628.91
2023-06-29T18:17:56.570Z,98639.69
2023-06-29T18:21:00.838Z,98637.00
2023-06-29T18:24:06.595Z,98646.19
2023-06-29T18:30:23.519Z,98640.31
2023-06-29T18:33:37.401Z,98646.00
2023-06-29T18:36:38.936Z,98633.66
2023-06-29T18:39:40.694Z,98628.72
2023-06-29T18:42:42.270Z,98636.97
2023-06-29T18:45:44.124Z,98642.63
2023-06-29T18:49:05.432Z,98618.72
2023-06-29T18:52:07.893Z,98636.94
2023-06-29T18:55:12.549Z,98638.72
2023-06-29T18:58:14.242Z,98621.97
2023-06-29T19:01:16.749Z,98638.84
2023-06-29T19:04:18.315Z,98631.72
2023-06-29T19:07:22.703Z,98640.00
2023-06-29T19:10:24.348Z,98628.00
2023-06-29T19:13:27.311Z,98636.06
2023-06-29T19:16:29.329Z,98626.41
2023-06-29T19:19:34.423Z,98631.03
2023-06-29T19:22:36.326Z,98624.91
2023-06-29T19:25:42.900Z,98645.72
2023-06-29T19:28:46.300Z,98639.41
2023-06-29T19:31:50.098Z,98631.53
2023-06-29T19:34:52.145Z,98626.28
2023-06-29T19:37:54.051Z,98639.09
2023-06-29T19:40:55.711Z,98643.91
2023-06-29T19:43:57.266Z,98636.38
2023-06-29T19:46:58.961Z,98648.31
2023-06-29T19:50:00.665Z,98639.50
2023-06-29T19:53:05.771Z,98641.06
2023-06-29T19:56:09.730Z,98644.34
2023-06-29T19:59:11.609Z,98641.38
2023-06-29T20:02:13.391Z,98641.56
2023-06-29T20:05:15.246Z,98641.22
2023-06-29T20:08:20.956Z,98641.81
2023-06-29T20:11:23.999Z,98638.19
2023-06-29T20:14:30.141Z,98647.44
2023-06-29T20:17:32.388Z,98641.22
2023-06-29T20:20:33.964Z,98639.81
2023-06-29T20:23:37.411Z,98644.28
2023-06-29T20:26:41.249Z,98641.69
2023-06-29T20:29:42.753Z,98630.06
2023-06-29T20:32:47.494Z,98638.84
2023-06-29T20:35:49.086Z,98638.41
2023-06-29T20:38:50.618Z,98631.16
2023-06-29T20:41:52.194Z,98634.00
2023-06-29T20:48:12.993Z,98632.44
2023-06-29T20:51:18.524Z,98625.72
2023-06-29T20:54:20.252Z,98624.31
2023-06-29T20:57:22.545Z,98627.84
2023-06-29T21:00:27.162Z,98611.50
2023-06-29T21:03:34.300Z,98621.06
2023-06-29T21:06:36.980Z,98623.41
2023-06-29T21:09:38.587Z,98626.94
2023-06-29T21:12:40.470Z,98618.72
2023-06-29T21:15:42.288Z,98618.81
2023-06-29T21:18:44.368Z,98612.66
2023-06-29T21:21:46.617Z,98614.22
2023-06-29T21:24:48.580Z,98622.16
2023-06-29T21:27:52.679Z,98616.69
2023-06-29T21:30:54.537Z,98624.19
2023-06-29T21:33:56.345Z,98617.47
2023-06-29T21:37:00.738Z,98617.22
2023-06-29T21:40:02.297Z,98622.47
2023-06-29T21:43:06.418Z,98625.84
2023-06-29T21:46:08.479Z,98627.81
2023-06-29T21:49:10.341Z,98636.16
2023-06-29T21:52:11.944Z,98617.06
2023-06-29T21:55:17.943Z,98610.03
2023-06-29T21:58:22.430Z,98625.03
2023-06-29T22:01:30.251Z,98622.53
2023-06-29T22:04:34.169Z,98626.44
2023-06-29T22:07:40.921Z,98613.06
2023-06-29T22:10:42.507Z,98612.28
2023-06-29T22:13:59.304Z,98610.84
2023-06-29T22:17:08.383Z,98608.47
2023-06-29T22:20:14.440Z,98612.06
2023-06-29T22:23:16.060Z,98605.06
2023-06-29T22:26:23.727Z,98596.13
2023-06-29T22:29:26.988Z,98599.72
2023-06-29T22:32:38.930Z,98606.28
2023-06-29T22:35:42.857Z,98603.09
2023-06-29T22:38:46.573Z,98613.09
2023-06-29T22:41:48.250Z,98611.94
2023-06-29T22:44:50.215Z,98610.66
2023-06-29T22:47:52.528Z,98607.66
2023-06-29T22:50:56.679Z,98603.59
2023-06-29T22:54:01.010Z,98608.91
2023-06-29T22:57:02.792Z,98601.78
2023-06-29T23:00:07.942Z,98603.19
2023-06-29T23:03:09.628Z,98603.97
2023-06-29T23:06:11.693Z,98607.06
2023-06-29T23:09:22.077Z,98601.16
2023-06-29T23:12:26.853Z,98605.03
2023-06-29T23:15:30.707Z,98592.44
2023-06-29T23:18:32.251Z,98599.03
2023-06-29T23:21:33.762Z,98603.38
2023-06-29T23:24:35.871Z,98615.19
2023-06-29T23:27:55.658Z,98602.66
2023-06-29T23:30:57.633Z,98595.91
2023-06-29T23:34:04.333Z,98588.19
2023-06-29T23:37:08.674Z,98600.28
2023-06-29T23:40:16.836Z,98580.41
2023-06-29T23:43:18.632Z,98590.22
2023-06-29T23:46:26.400Z,98593.06
2023-06-29T23:49:28.268Z,98578.25
2023-06-29T23:52:32.888Z,98577.41
2023-06-29T23:55:34.625Z,98575.28
2023-06-29T23:58:39.710Z,98567.50
